sensor_id;sensor_type;location;lat;lon;timestamp;P1;durP1;ratioP1;P2;durP2;ratioP2
39772;SDS011;25451;51.960;6.250;2023-11-19T00:00:59;8.60;;;4.87;;
39772;SDS011;25451;51.960;6.250;2023-11-19T00:03:25;12.13;;;5.30;;
39772;SDS011;25451;51.960;6.250;2023-11-19T00:05:50;7.13;;;4.73;;
39772;SDS011;25451;51.960;6.250;2023-11-19T00:08:15;8.83;;;4.80;;
39772;SDS011;25451;51.960;6.250;2023-11-19T00:10:41;7.10;;;4.80;;
39772;SDS011;25451;51.960;6.250;2023-11-19T00:13:06;8.43;;;4.87;;
39772;SDS011;25451;51.960;6.250;2023-11-19T00:15:32;7.72;;;5.10;;
39772;SDS011;25451;51.960;6.250;2023-11-19T00:17:57;9.03;;;5.13;;
39772;SDS011;25451;51.960;6.250;2023-11-19T00:20:22;8.97;;;5.20;;
39772;SDS011;25451;51.960;6.250;2023-11-19T00:22:48;11.57;;;5.53;;
39772;SDS011;25451;51.960;6.250;2023-11-19T00:25:16;9.73;;;5.50;;
39772;SDS011;25451;51.960;6.250;2023-11-19T00:27:44;10.05;;;5.50;;
39772;SDS011;25451;51.960;6.250;2023-11-19T00:30:10;8.10;;;5.30;;
39772;SDS011;25451;51.960;6.250;2023-11-19T00:32:35;8.25;;;5.20;;
39772;SDS011;25451;51.960;6.250;2023-11-19T00:35:03;11.38;;;5.53;;
39772;SDS011;25451;51.960;6.250;2023-11-19T00:37:29;8.45;;;5.03;;
39772;SDS011;25451;51.960;6.250;2023-11-19T00:39:54;9.07;;;5.15;;
39772;SDS011;25451;51.960;6.250;2023-11-19T00:42:21;9.17;;;5.47;;
39772;SDS011;25451;51.960;6.250;2023-11-19T00:44:46;8.82;;;5.28;;
39772;SDS011;25451;51.960;6.250;2023-11-19T00:47:12;8.03;;;4.67;;
39772;SDS011;25451;51.960;6.250;2023-11-19T00:49:37;11.57;;;5.23;;
39772;SDS011;25451;51.960;6.250;2023-11-19T00:52:02;8.63;;;4.90;;
39772;SDS011;25451;51.960;6.250;2023-11-19T00:54:28;10.63;;;4.90;;
39772;SDS011;25451;51.960;6.250;2023-11-19T00:56:53;9.18;;;4.68;;
39772;SDS011;25451;51.960;6.250;2023-11-19T00:59:19;11.20;;;4.68;;
39772;SDS011;25451;51.960;6.250;2023-11-19T01:01:44;12.80;;;4.80;;
39772;SDS011;25451;51.960;6.250;2023-11-19T01:04:10;8.75;;;4.55;;
39772;SDS011;25451;51.960;6.250;2023-11-19T01:06:35;9.00;;;4.50;;
39772;SDS011;25451;51.960;6.250;2023-11-19T01:09:01;8.83;;;4.53;;
39772;SDS011;25451;51.960;6.250;2023-11-19T01:11:27;8.40;;;4.35;;
39772;SDS011;25451;51.960;6.250;2023-11-19T01:13:53;9.03;;;4.37;;
39772;SDS011;25451;51.960;6.250;2023-11-19T01:16:19;9.75;;;4.80;;
39772;SDS011;25451;51.960;6.250;2023-11-19T01:18:48;9.43;;;4.25;;
39772;SDS011;25451;51.960;6.250;2023-11-19T01:21:14;7.93;;;3.90;;
39772;SDS011;25451;51.960;6.250;2023-11-19T01:23:40;10.30;;;4.18;;
39772;SDS011;25451;51.960;6.250;2023-11-19T01:26:08;12.73;;;4.22;;
39772;SDS011;25451;51.960;6.250;2023-11-19T01:28:35;10.50;;;4.22;;
39772;SDS011;25451;51.960;6.250;2023-11-19T01:31:00;8.40;;;4.30;;
39772;SDS011;25451;51.960;6.250;2023-11-19T01:33:25;14.30;;;4.60;;
39772;SDS011;25451;51.960;6.250;2023-11-19T01:35:50;9.30;;;4.40;;
39772;SDS011;25451;51.960;6.250;2023-11-19T01:38:16;12.10;;;4.13;;
39772;SDS011;25451;51.960;6.250;2023-11-19T01:40:41;8.40;;;3.70;;
39772;SDS011;25451;51.960;6.250;2023-11-19T01:43:07;10.50;;;3.90;;
39772;SDS011;25451;51.960;6.250;2023-11-19T01:45:36;11.63;;;3.88;;
39772;SDS011;25451;51.960;6.250;2023-11-19T01:48:02;8.25;;;4.05;;
39772;SDS011;25451;51.960;6.250;2023-11-19T01:50:31;10.32;;;4.13;;
39772;SDS011;25451;51.960;6.250;2023-11-19T01:52:58;8.50;;;3.95;;
39772;SDS011;25451;51.960;6.250;2023-11-19T01:55:24;11.47;;;3.77;;
39772;SDS011;25451;51.960;6.250;2023-11-19T01:57:53;9.48;;;3.80;;
39772;SDS011;25451;51.960;6.250;2023-11-19T02:00:24;10.60;;;3.80;;
39772;SDS011;25451;51.960;6.250;2023-11-19T02:02:50;8.20;;;3.70;;
39772;SDS011;25451;51.960;6.250;2023-11-19T02:05:17;10.55;;;3.67;;
39772;SDS011;25451;51.960;6.250;2023-11-19T02:07:42;8.53;;;3.70;;
39772;SDS011;25451;51.960;6.250;2023-11-19T02:10:08;13.53;;;3.73;;
39772;SDS011;25451;51.960;6.250;2023-11-19T02:12:38;11.10;;;3.70;;
39772;SDS011;25451;51.960;6.250;2023-11-19T02:15:08;8.07;;;3.42;;
39772;SDS011;25451;51.960;6.250;2023-11-19T02:17:34;10.13;;;3.53;;
39772;SDS011;25451;51.960;6.250;2023-11-19T02:20:05;9.93;;;3.42;;
39772;SDS011;25451;51.960;6.250;2023-11-19T02:22:34;8.48;;;3.55;;
39772;SDS011;25451;51.960;6.250;2023-11-19T02:25:00;10.02;;;3.60;;
39772;SDS011;25451;51.960;6.250;2023-11-19T02:30:20;10.63;;;3.20;;
39772;SDS011;25451;51.960;6.250;2023-11-19T02:32:46;13.88;;;3.20;;
39772;SDS011;25451;51.960;6.250;2023-11-19T02:35:13;10.90;;;3.05;;
39772;SDS011;25451;51.960;6.250;2023-11-19T02:37:38;12.50;;;3.20;;
39772;SDS011;25451;51.960;6.250;2023-11-19T02:40:04;10.50;;;3.17;;
39772;SDS011;25451;51.960;6.250;2023-11-19T02:42:30;12.38;;;2.97;;
39772;SDS011;25451;51.960;6.250;2023-11-19T02:44:56;13.87;;;2.63;;
39772;SDS011;25451;51.960;6.250;2023-11-19T02:47:21;7.53;;;2.58;;
39772;SDS011;25451;51.960;6.250;2023-11-19T02:49:49;11.88;;;2.50;;
39772;SDS011;25451;51.960;6.250;2023-11-19T02:52:14;15.02;;;2.90;;
39772;SDS011;25451;51.960;6.250;2023-11-19T02:54:40;15.13;;;2.83;;
39772;SDS011;25451;51.960;6.250;2023-11-19T02:57:06;14.18;;;2.70;;
39772;SDS011;25451;51.960;6.250;2023-11-19T02:59:35;15.18;;;2.78;;
39772;SDS011;25451;51.960;6.250;2023-11-19T03:02:08;14.05;;;3.13;;
39772;SDS011;25451;51.960;6.250;2023-11-19T03:04:37;14.45;;;2.55;;
39772;SDS011;25451;51.960;6.250;2023-11-19T03:07:06;14.00;;;2.72;;
39772;SDS011;25451;51.960;6.250;2023-11-19T03:09:34;13.70;;;2.90;;
39772;SDS011;25451;51.960;6.250;2023-11-19T03:12:00;15.63;;;2.73;;
39772;SDS011;25451;51.960;6.250;2023-11-19T03:14:26;14.38;;;2.83;;
39772;SDS011;25451;51.960;6.250;2023-11-19T03:16:52;9.30;;;2.50;;
39772;SDS011;25451;51.960;6.250;2023-11-19T03:19:17;11.57;;;2.60;;
39772;SDS011;25451;51.960;6.250;2023-11-19T03:21:43;18.77;;;2.60;;
39772;SDS011;25451;51.960;6.250;2023-11-19T03:24:09;13.20;;;2.10;;
39772;SDS011;25451;51.960;6.250;2023-11-19T03:26:35;16.03;;;2.40;;
39772;SDS011;25451;51.960;6.250;2023-11-19T03:29:00;14.70;;;2.30;;
39772;SDS011;25451;51.960;6.250;2023-11-19T03:31:26;16.83;;;2.38;;
39772;SDS011;25451;51.960;6.250;2023-11-19T03:33:51;16.33;;;2.67;;
39772;SDS011;25451;51.960;6.250;2023-11-19T03:36:17;16.23;;;2.63;;
39772;SDS011;25451;51.960;6.250;2023-11-19T03:38:42;17.87;;;2.70;;
39772;SDS011;25451;51.960;6.250;2023-11-19T03:41:11;22.13;;;2.60;;
39772;SDS011;25451;51.960;6.250;2023-11-19T03:43:40;16.30;;;2.25;;
39772;SDS011;25451;51.960;6.250;2023-11-19T03:46:21;17.08;;;2.85;;
39772;SDS011;25451;51.960;6.250;2023-11-19T03:48:47;17.15;;;2.60;;
39772;SDS011;25451;51.960;6.250;2023-11-19T03:51:13;17.25;;;2.40;;
39772;SDS011;25451;51.960;6.250;2023-11-19T03:53:41;19.65;;;2.13;;
39772;SDS011;25451;51.960;6.250;2023-11-19T03:56:10;20.92;;;2.58;;
39772;SDS011;25451;51.960;6.250;2023-11-19T03:58:37;19.30;;;2.20;;
39772;SDS011;25451;51.960;6.250;2023-11-19T04:01:03;20.23;;;2.45;;
39772;SDS011;25451;51.960;6.250;2023-11-19T04:03:29;18.80;;;2.75;;
39772;SDS011;25451;51.960;6.250;2023-11-19T04:05:55;16.00;;;2.27;;
39772;SDS011;25451;51.960;6.250;2023-11-19T04:08:20;14.23;;;2.07;;
39772;SDS011;25451;51.960;6.250;2023-11-19T04:10:45;17.47;;;2.20;;
39772;SDS011;25451;51.960;6.250;2023-11-19T04:13:11;15.55;;;2.38;;
39772;SDS011;25451;51.960;6.250;2023-11-19T04:15:37;16.80;;;2.20;;
39772;SDS011;25451;51.960;6.250;2023-11-19T04:18:02;10.93;;;1.97;;
39772;SDS011;25451;51.960;6.250;2023-11-19T04:20:27;21.15;;;2.42;;
39772;SDS011;25451;51.960;6.250;2023-11-19T04:22:53;16.03;;;1.73;;
39772;SDS011;25451;51.960;6.250;2023-11-19T04:25:18;21.00;;;2.30;;
39772;SDS011;25451;51.960;6.250;2023-11-19T04:27:44;19.57;;;2.57;;
39772;SDS011;25451;51.960;6.250;2023-11-19T04:30:09;15.70;;;2.35;;
39772;SDS011;25451;51.960;6.250;2023-11-19T04:32:36;17.70;;;2.13;;
39772;SDS011;25451;51.960;6.250;2023-11-19T04:35:01;18.35;;;2.00;;
39772;SDS011;25451;51.960;6.250;2023-11-19T04:37:26;13.03;;;2.10;;
39772;SDS011;25451;51.960;6.250;2023-11-19T04:39:52;19.03;;;1.90;;
39772;SDS011;25451;51.960;6.250;2023-11-19T04:42:17;19.10;;;2.30;;
39772;SDS011;25451;51.960;6.250;2023-11-19T04:44:43;20.33;;;2.37;;
39772;SDS011;25451;51.960;6.250;2023-11-19T04:47:08;20.05;;;2.55;;
39772;SDS011;25451;51.960;6.250;2023-11-19T04:49:36;16.73;;;2.00;;
39772;SDS011;25451;51.960;6.250;2023-11-19T04:52:07;14.17;;;1.77;;
39772;SDS011;25451;51.960;6.250;2023-11-19T04:54:33;15.02;;;2.22;;
39772;SDS011;25451;51.960;6.250;2023-11-19T04:56:58;14.00;;;1.80;;
39772;SDS011;25451;51.960;6.250;2023-11-19T04:59:24;13.37;;;2.50;;
39772;SDS011;25451;51.960;6.250;2023-11-19T05:01:49;16.83;;;2.70;;
39772;SDS011;25451;51.960;6.250;2023-11-19T05:04:15;17.20;;;2.20;;
39772;SDS011;25451;51.960;6.250;2023-11-19T05:06:41;16.03;;;2.03;;
39772;SDS011;25451;51.960;6.250;2023-11-19T05:09:06;13.40;;;2.27;;
39772;SDS011;25451;51.960;6.250;2023-11-19T05:11:33;21.45;;;2.22;;
39772;SDS011;25451;51.960;6.250;2023-11-19T05:13:59;21.27;;;2.30;;
39772;SDS011;25451;51.960;6.250;2023-11-19T05:16:25;18.60;;;2.57;;
39772;SDS011;25451;51.960;6.250;2023-11-19T05:18:50;13.77;;;2.22;;
39772;SDS011;25451;51.960;6.250;2023-11-19T05:21:15;19.27;;;2.37;;
39772;SDS011;25451;51.960;6.250;2023-11-19T05:23:42;20.05;;;2.13;;
39772;SDS011;25451;51.960;6.250;2023-11-19T05:26:07;16.80;;;2.63;;
39772;SDS011;25451;51.960;6.250;2023-11-19T05:28:33;17.83;;;2.23;;
39772;SDS011;25451;51.960;6.250;2023-11-19T05:30:59;14.88;;;1.90;;
39772;SDS011;25451;51.960;6.250;2023-11-19T05:33:24;24.27;;;2.90;;
39772;SDS011;25451;51.960;6.250;2023-11-19T05:35:50;21.57;;;3.00;;
39772;SDS011;25451;51.960;6.250;2023-11-19T05:38:15;19.80;;;2.07;;
39772;SDS011;25451;51.960;6.250;2023-11-19T05:40:43;20.10;;;2.27;;
39772;SDS011;25451;51.960;6.250;2023-11-19T05:43:09;17.80;;;2.30;;
39772;SDS011;25451;51.960;6.250;2023-11-19T05:45:34;21.70;;;2.73;;
39772;SDS011;25451;51.960;6.250;2023-11-19T05:47:59;17.93;;;2.00;;
39772;SDS011;25451;51.960;6.250;2023-11-19T05:50:24;20.23;;;2.17;;
39772;SDS011;25451;51.960;6.250;2023-11-19T05:52:50;20.27;;;2.20;;
39772;SDS011;25451;51.960;6.250;2023-11-19T05:55:15;20.03;;;2.50;;
39772;SDS011;25451;51.960;6.250;2023-11-19T05:57:41;16.20;;;2.00;;
39772;SDS011;25451;51.960;6.250;2023-11-19T06:00:06;21.13;;;2.60;;
39772;SDS011;25451;51.960;6.250;2023-11-19T06:02:42;23.08;;;3.08;;
39772;SDS011;25451;51.960;6.250;2023-11-19T06:05:08;17.60;;;2.50;;
39772;SDS011;25451;51.960;6.250;2023-11-19T06:07:34;21.15;;;2.92;;
39772;SDS011;25451;51.960;6.250;2023-11-19T06:10:00;18.05;;;2.63;;
39772;SDS011;25451;51.960;6.250;2023-11-19T06:12:26;22.17;;;2.53;;
39772;SDS011;25451;51.960;6.250;2023-11-19T06:14:52;16.70;;;2.75;;
39772;SDS011;25451;51.960;6.250;2023-11-19T06:17:18;25.37;;;2.23;;
39772;SDS011;25451;51.960;6.250;2023-11-19T06:19:43;20.37;;;2.60;;
39772;SDS011;25451;51.960;6.250;2023-11-19T06:22:08;18.57;;;2.70;;
39772;SDS011;25451;51.960;6.250;2023-11-19T06:24:33;21.77;;;2.87;;
39772;SDS011;25451;51.960;6.250;2023-11-19T06:26:59;20.67;;;3.10;;
39772;SDS011;25451;51.960;6.250;2023-11-19T06:29:24;17.47;;;2.70;;
39772;SDS011;25451;51.960;6.250;2023-11-19T06:31:49;24.53;;;2.60;;
39772;SDS011;25451;51.960;6.250;2023-11-19T06:34:15;16.83;;;2.53;;
39772;SDS011;25451;51.960;6.250;2023-11-19T06:36:40;15.85;;;2.15;;
39772;SDS011;25451;51.960;6.250;2023-11-19T06:39:07;19.33;;;2.20;;
39772;SDS011;25451;51.960;6.250;2023-11-19T06:41:33;21.17;;;2.58;;
39772;SDS011;25451;51.960;6.250;2023-11-19T06:43:58;25.73;;;2.20;;
39772;SDS011;25451;51.960;6.250;2023-11-19T06:46:24;17.35;;;2.13;;
39772;SDS011;25451;51.960;6.250;2023-11-19T06:48:50;16.23;;;2.27;;
39772;SDS011;25451;51.960;6.250;2023-11-19T06:51:15;21.27;;;2.53;;
39772;SDS011;25451;51.960;6.250;2023-11-19T06:53:42;15.20;;;2.27;;
39772;SDS011;25451;51.960;6.250;2023-11-19T06:56:22;13.93;;;2.17;;
39772;SDS011;25451;51.960;6.250;2023-11-19T06:58:48;20.50;;;3.13;;
39772;SDS011;25451;51.960;6.250;2023-11-19T07:01:14;22.03;;;3.03;;
39772;SDS011;25451;51.960;6.250;2023-11-19T07:03:40;19.02;;;2.22;;
39772;SDS011;25451;51.960;6.250;2023-11-19T07:06:05;18.23;;;2.23;;
39772;SDS011;25451;51.960;6.250;2023-11-19T07:08:31;14.30;;;1.90;;
39772;SDS011;25451;51.960;6.250;2023-11-19T07:10:56;17.73;;;2.53;;
39772;SDS011;25451;51.960;6.250;2023-11-19T07:13:21;17.50;;;2.13;;
39772;SDS011;25451;51.960;6.250;2023-11-19T07:15:47;19.05;;;2.45;;
39772;SDS011;25451;51.960;6.250;2023-11-19T07:18:12;25.23;;;2.80;;
39772;SDS011;25451;51.960;6.250;2023-11-19T07:20:37;20.27;;;3.00;;
39772;SDS011;25451;51.960;6.250;2023-11-19T07:23:03;17.67;;;2.83;;
39772;SDS011;25451;51.960;6.250;2023-11-19T07:25:29;23.20;;;2.65;;
39772;SDS011;25451;51.960;6.250;2023-11-19T07:27:54;18.97;;;2.30;;
39772;SDS011;25451;51.960;6.250;2023-11-19T07:30:19;16.13;;;2.33;;
39772;SDS011;25451;51.960;6.250;2023-11-19T07:32:44;17.93;;;2.37;;
39772;SDS011;25451;51.960;6.250;2023-11-19T07:35:10;20.17;;;2.30;;
39772;SDS011;25451;51.960;6.250;2023-11-19T07:37:35;21.83;;;3.00;;
39772;SDS011;25451;51.960;6.250;2023-11-19T07:40:00;28.93;;;3.10;;
39772;SDS011;25451;51.960;6.250;2023-11-19T07:42:26;20.13;;;2.38;;
39772;SDS011;25451;51.960;6.250;2023-11-19T07:44:52;22.30;;;2.77;;
39772;SDS011;25451;51.960;6.250;2023-11-19T07:47:19;18.00;;;2.25;;
39772;SDS011;25451;51.960;6.250;2023-11-19T07:49:44;20.27;;;2.60;;
39772;SDS011;25451;51.960;6.250;2023-11-19T07:52:10;14.50;;;2.23;;
39772;SDS011;25451;51.960;6.250;2023-11-19T07:54:35;17.90;;;2.13;;
39772;SDS011;25451;51.960;6.250;2023-11-19T07:57:00;24.20;;;2.77;;
39772;SDS011;25451;51.960;6.250;2023-11-19T07:59:26;15.10;;;2.35;;
39772;SDS011;25451;51.960;6.250;2023-11-19T08:01:51;19.30;;;2.30;;
39772;SDS011;25451;51.960;6.250;2023-11-19T08:04:16;24.47;;;2.60;;
39772;SDS011;25451;51.960;6.250;2023-11-19T08:06:42;17.90;;;2.60;;
39772;SDS011;25451;51.960;6.250;2023-11-19T08:09:07;25.80;;;3.07;;
39772;SDS011;25451;51.960;6.250;2023-11-19T08:11:38;29.33;;;3.30;;
39772;SDS011;25451;51.960;6.250;2023-11-19T08:14:04;15.60;;;2.35;;
39772;SDS011;25451;51.960;6.250;2023-11-19T08:16:29;20.13;;;2.63;;
39772;SDS011;25451;51.960;6.250;2023-11-19T08:18:55;18.63;;;2.70;;
39772;SDS011;25451;51.960;6.250;2023-11-19T08:21:22;20.55;;;2.80;;
39772;SDS011;25451;51.960;6.250;2023-11-19T08:23:47;16.83;;;2.87;;
39772;SDS011;25451;51.960;6.250;2023-11-19T08:26:14;23.03;;;2.60;;
39772;SDS011;25451;51.960;6.250;2023-11-19T08:28:39;20.10;;;2.55;;
39772;SDS011;25451;51.960;6.250;2023-11-19T08:31:05;26.63;;;2.73;;
39772;SDS011;25451;51.960;6.250;2023-11-19T08:33:31;20.58;;;2.10;;
39772;SDS011;25451;51.960;6.250;2023-11-19T08:35:56;20.27;;;2.90;;
39772;SDS011;25451;51.960;6.250;2023-11-19T08:38:23;21.35;;;2.47;;
39772;SDS011;25451;51.960;6.250;2023-11-19T08:40:49;22.07;;;2.53;;
39772;SDS011;25451;51.960;6.250;2023-11-19T08:43:14;19.77;;;2.60;;
39772;SDS011;25451;51.960;6.250;2023-11-19T08:45:39;20.70;;;2.77;;
39772;SDS011;25451;51.960;6.250;2023-11-19T08:48:05;26.53;;;2.40;;
39772;SDS011;25451;51.960;6.250;2023-11-19T08:50:30;22.97;;;2.70;;
39772;SDS011;25451;51.960;6.250;2023-11-19T08:52:55;15.33;;;2.80;;
39772;SDS011;25451;51.960;6.250;2023-11-19T08:55:21;20.80;;;2.67;;
39772;SDS011;25451;51.960;6.250;2023-11-19T08:57:46;21.30;;;2.63;;
39772;SDS011;25451;51.960;6.250;2023-11-19T09:00:11;17.90;;;1.92;;
39772;SDS011;25451;51.960;6.250;2023-11-19T09:02:39;14.45;;;2.25;;
39772;SDS011;25451;51.960;6.250;2023-11-19T09:05:05;26.93;;;2.60;;
39772;SDS011;25451;51.960;6.250;2023-11-19T09:07:32;25.55;;;3.30;;
39772;SDS011;25451;51.960;6.250;2023-11-19T09:09:58;25.35;;;3.35;;
39772;SDS011;25451;51.960;6.250;2023-11-19T09:12:23;26.53;;;2.33;;
39772;SDS011;25451;51.960;6.250;2023-11-19T09:14:48;24.63;;;2.83;;
39772;SDS011;25451;51.960;6.250;2023-11-19T09:17:14;23.90;;;2.90;;
39772;SDS011;25451;51.960;6.250;2023-11-19T09:19:40;25.05;;;2.72;;
39772;SDS011;25451;51.960;6.250;2023-11-19T09:22:05;15.80;;;2.60;;
39772;SDS011;25451;51.960;6.250;2023-11-19T09:24:31;22.40;;;2.57;;
39772;SDS011;25451;51.960;6.250;2023-11-19T09:26:56;26.97;;;3.03;;
39772;SDS011;25451;51.960;6.250;2023-11-19T09:29:22;24.67;;;2.30;;
39772;SDS011;25451;51.960;6.250;2023-11-19T09:31:47;22.37;;;2.77;;
39772;SDS011;25451;51.960;6.250;2023-11-19T09:34:12;21.27;;;2.47;;
39772;SDS011;25451;51.960;6.250;2023-11-19T09:36:38;21.37;;;2.40;;
39772;SDS011;25451;51.960;6.250;2023-11-19T09:39:04;18.10;;;2.33;;
39772;SDS011;25451;51.960;6.250;2023-11-19T09:41:30;22.08;;;2.47;;
39772;SDS011;25451;51.960;6.250;2023-11-19T09:43:57;21.77;;;2.40;;
39772;SDS011;25451;51.960;6.250;2023-11-19T09:46:22;20.80;;;2.50;;
39772;SDS011;25451;51.960;6.250;2023-11-19T09:48:49;21.55;;;3.45;;
39772;SDS011;25451;51.960;6.250;2023-11-19T09:51:19;23.48;;;2.22;;
39772;SDS011;25451;51.960;6.250;2023-11-19T09:53:45;21.97;;;3.10;;
39772;SDS011;25451;51.960;6.250;2023-11-19T09:56:10;20.73;;;2.28;;
39772;SDS011;25451;51.960;6.250;2023-11-19T09:58:37;24.88;;;2.63;;
39772;SDS011;25451;51.960;6.250;2023-11-19T10:01:02;20.83;;;2.67;;
39772;SDS011;25451;51.960;6.250;2023-11-19T10:03:32;18.83;;;2.20;;
39772;SDS011;25451;51.960;6.250;2023-11-19T10:06:03;22.98;;;2.58;;
39772;SDS011;25451;51.960;6.250;2023-11-19T10:08:29;28.10;;;2.45;;
39772;SDS011;25451;51.960;6.250;2023-11-19T10:10:55;26.37;;;2.80;;
39772;SDS011;25451;51.960;6.250;2023-11-19T10:13:22;17.97;;;2.33;;
39772;SDS011;25451;51.960;6.250;2023-11-19T10:15:51;18.05;;;2.70;;
39772;SDS011;25451;51.960;6.250;2023-11-19T10:18:17;23.17;;;2.80;;
39772;SDS011;25451;51.960;6.250;2023-11-19T10:20:43;21.20;;;2.70;;
39772;SDS011;25451;51.960;6.250;2023-11-19T10:23:09;24.50;;;2.97;;
39772;SDS011;25451;51.960;6.250;2023-11-19T10:25:36;18.30;;;2.60;;
39772;SDS011;25451;51.960;6.250;2023-11-19T10:28:01;26.05;;;2.55;;
39772;SDS011;25451;51.960;6.250;2023-11-19T10:30:28;25.95;;;2.92;;
39772;SDS011;25451;51.960;6.250;2023-11-19T10:35:34;23.90;;;2.83;;
39772;SDS011;25451;51.960;6.250;2023-11-19T10:38:01;25.77;;;3.10;;
39772;SDS011;25451;51.960;6.250;2023-11-19T10:40:38;17.52;;;2.35;;
39772;SDS011;25451;51.960;6.250;2023-11-19T10:43:06;18.67;;;2.58;;
39772;SDS011;25451;51.960;6.250;2023-11-19T10:45:35;18.77;;;2.15;;
39772;SDS011;25451;51.960;6.250;2023-11-19T10:48:02;21.55;;;2.90;;
39772;SDS011;25451;51.960;6.250;2023-11-19T10:50:32;23.45;;;2.20;;
39772;SDS011;25451;51.960;6.250;2023-11-19T10:53:02;27.23;;;2.83;;
39772;SDS011;25451;51.960;6.250;2023-11-19T10:55:32;24.75;;;2.53;;
39772;SDS011;25451;51.960;6.250;2023-11-19T10:58:01;25.02;;;2.80;;
39772;SDS011;25451;51.960;6.250;2023-11-19T11:03:05;20.88;;;3.15;;
39772;SDS011;25451;51.960;6.250;2023-11-19T11:05:35;19.15;;;2.40;;
39772;SDS011;25451;51.960;6.250;2023-11-19T11:08:03;21.83;;;2.60;;
39772;SDS011;25451;51.960;6.250;2023-11-19T11:10:31;17.88;;;2.00;;
39772;SDS011;25451;51.960;6.250;2023-11-19T11:13:02;19.55;;;2.80;;
39772;SDS011;25451;51.960;6.250;2023-11-19T11:15:28;19.30;;;2.42;;
39772;SDS011;25451;51.960;6.250;2023-11-19T11:17:57;24.58;;;2.42;;
39772;SDS011;25451;51.960;6.250;2023-11-19T11:20:29;24.77;;;2.63;;
39772;SDS011;25451;51.960;6.250;2023-11-19T11:34:15;19.58;;;2.40;;
39772;SDS011;25451;51.960;6.250;2023-11-19T11:39:33;22.23;;;2.53;;
39772;SDS011;25451;51.960;6.250;2023-11-19T11:45:02;17.42;;;2.55;;
39772;SDS011;25451;51.960;6.250;2023-11-19T11:50:08;14.40;;;2.10;;
39772;SDS011;25451;51.960;6.250;2023-11-19T11:52:56;20.77;;;2.47;;
39772;SDS011;25451;51.960;6.250;2023-11-19T11:57:50;16.75;;;2.40;;
39772;SDS011;25451;51.960;6.250;2023-11-19T12:00:22;16.17;;;2.57;;
39772;SDS011;25451;51.960;6.250;2023-11-19T12:02:56;20.60;;;2.00;;
39772;SDS011;25451;51.960;6.250;2023-11-19T12:05:24;17.95;;;2.25;;
39772;SDS011;25451;51.960;6.250;2023-11-19T12:07:56;17.67;;;2.78;;
39772;SDS011;25451;51.960;6.250;2023-11-19T12:10:26;21.45;;;2.90;;
39772;SDS011;25451;51.960;6.250;2023-11-19T12:12:57;17.25;;;2.13;;
39772;SDS011;25451;51.960;6.250;2023-11-19T12:15:23;19.20;;;2.47;;
39772;SDS011;25451;51.960;6.250;2023-11-19T12:17:50;19.55;;;2.53;;
39772;SDS011;25451;51.960;6.250;2023-11-19T12:20:16;20.33;;;2.20;;
39772;SDS011;25451;51.960;6.250;2023-11-19T12:22:44;20.10;;;2.47;;
39772;SDS011;25451;51.960;6.250;2023-11-19T12:25:11;19.73;;;3.00;;
39772;SDS011;25451;51.960;6.250;2023-11-19T12:27:44;19.95;;;2.05;;
39772;SDS011;25451;51.960;6.250;2023-11-19T12:30:22;15.07;;;2.70;;
39772;SDS011;25451;51.960;6.250;2023-11-19T12:32:49;20.73;;;2.87;;
39772;SDS011;25451;51.960;6.250;2023-11-19T12:35:15;16.60;;;2.30;;
39772;SDS011;25451;51.960;6.250;2023-11-19T12:37:44;20.90;;;2.47;;
39772;SDS011;25451;51.960;6.250;2023-11-19T12:40:14;18.88;;;2.53;;
39772;SDS011;25451;51.960;6.250;2023-11-19T12:42:44;17.83;;;3.07;;
39772;SDS011;25451;51.960;6.250;2023-11-19T12:45:13;20.00;;;2.30;;
39772;SDS011;25451;51.960;6.250;2023-11-19T12:47:39;16.75;;;2.60;;
39772;SDS011;25451;51.960;6.250;2023-11-19T12:50:05;22.00;;;2.53;;
39772;SDS011;25451;51.960;6.250;2023-11-19T12:52:32;17.88;;;2.47;;
39772;SDS011;25451;51.960;6.250;2023-11-19T12:54:58;20.10;;;1.93;;
39772;SDS011;25451;51.960;6.250;2023-11-19T12:57:36;16.90;;;2.10;;
39772;SDS011;25451;51.960;6.250;2023-11-19T13:00:06;15.55;;;2.15;;
39772;SDS011;25451;51.960;6.250;2023-11-19T13:05:24;12.68;;;1.77;;
39772;SDS011;25451;51.960;6.250;2023-11-19T13:07:51;16.15;;;2.53;;
39772;SDS011;25451;51.960;6.250;2023-11-19T13:10:16;15.00;;;2.30;;
39772;SDS011;25451;51.960;6.250;2023-11-19T13:12:42;12.70;;;2.20;;
39772;SDS011;25451;51.960;6.250;2023-11-19T13:15:21;18.10;;;2.30;;
39772;SDS011;25451;51.960;6.250;2023-11-19T13:17:48;12.32;;;2.22;;
39772;SDS011;25451;51.960;6.250;2023-11-19T13:20:13;19.95;;;2.25;;
39772;SDS011;25451;51.960;6.250;2023-11-19T13:22:53;12.68;;;2.03;;
39772;SDS011;25451;51.960;6.250;2023-11-19T13:25:19;15.40;;;2.00;;
39772;SDS011;25451;51.960;6.250;2023-11-19T13:27:45;15.03;;;2.43;;
39772;SDS011;25451;51.960;6.250;2023-11-19T13:30:11;16.45;;;2.28;;
39772;SDS011;25451;51.960;6.250;2023-11-19T13:32:37;13.30;;;2.05;;
39772;SDS011;25451;51.960;6.250;2023-11-19T13:35:04;13.73;;;2.50;;
39772;SDS011;25451;51.960;6.250;2023-11-19T13:37:30;11.30;;;2.58;;
39772;SDS011;25451;51.960;6.250;2023-11-19T13:39:55;13.77;;;2.00;;
39772;SDS011;25451;51.960;6.250;2023-11-19T13:42:20;15.23;;;2.07;;
39772;SDS011;25451;51.960;6.250;2023-11-19T13:44:46;15.83;;;2.30;;
39772;SDS011;25451;51.960;6.250;2023-11-19T13:47:11;16.30;;;2.30;;
39772;SDS011;25451;51.960;6.250;2023-11-19T13:49:38;14.55;;;2.30;;
39772;SDS011;25451;51.960;6.250;2023-11-19T13:52:04;13.30;;;2.20;;
39772;SDS011;25451;51.960;6.250;2023-11-19T13:54:30;14.27;;;2.22;;
39772;SDS011;25451;51.960;6.250;2023-11-19T13:56:55;13.80;;;2.20;;
39772;SDS011;25451;51.960;6.250;2023-11-19T13:59:23;13.30;;;2.17;;
39772;SDS011;25451;51.960;6.250;2023-11-19T14:01:48;15.37;;;2.17;;
39772;SDS011;25451;51.960;6.250;2023-11-19T14:04:14;20.75;;;2.60;;
39772;SDS011;25451;51.960;6.250;2023-11-19T14:06:39;17.93;;;2.80;;
39772;SDS011;25451;51.960;6.250;2023-11-19T14:09:06;18.03;;;2.40;;
39772;SDS011;25451;51.960;6.250;2023-11-19T14:11:32;11.57;;;2.30;;
39772;SDS011;25451;51.960;6.250;2023-11-19T14:13:57;14.63;;;2.30;;
39772;SDS011;25451;51.960;6.250;2023-11-19T14:16:26;14.63;;;2.87;;
39772;SDS011;25451;51.960;6.250;2023-11-19T14:18:51;11.23;;;2.50;;
39772;SDS011;25451;51.960;6.250;2023-11-19T14:21:16;12.57;;;2.27;;
39772;SDS011;25451;51.960;6.250;2023-11-19T14:23:42;11.20;;;1.93;;
39772;SDS011;25451;51.960;6.250;2023-11-19T14:26:07;11.90;;;2.00;;
39772;SDS011;25451;51.960;6.250;2023-11-19T14:28:33;13.80;;;2.60;;
39772;SDS011;25451;51.960;6.250;2023-11-19T14:30:58;13.15;;;2.10;;
39772;SDS011;25451;51.960;6.250;2023-11-19T14:33:24;13.50;;;1.90;;
39772;SDS011;25451;51.960;6.250;2023-11-19T14:35:49;11.80;;;1.80;;
39772;SDS011;25451;51.960;6.250;2023-11-19T14:38:14;13.63;;;2.30;;
39772;SDS011;25451;51.960;6.250;2023-11-19T14:40:40;15.53;;;2.70;;
39772;SDS011;25451;51.960;6.250;2023-11-19T14:43:07;13.45;;;2.03;;
39772;SDS011;25451;51.960;6.250;2023-11-19T14:45:35;12.95;;;2.28;;
39772;SDS011;25451;51.960;6.250;2023-11-19T14:48:00;11.20;;;1.80;;
39772;SDS011;25451;51.960;6.250;2023-11-19T14:50:26;16.03;;;2.53;;
39772;SDS011;25451;51.960;6.250;2023-11-19T14:52:51;16.20;;;3.00;;
39772;SDS011;25451;51.960;6.250;2023-11-19T14:55:16;15.17;;;2.27;;
39772;SDS011;25451;51.960;6.250;2023-11-19T14:57:41;14.70;;;2.53;;
39772;SDS011;25451;51.960;6.250;2023-11-19T15:00:09;11.95;;;1.92;;
39772;SDS011;25451;51.960;6.250;2023-11-19T15:02:38;16.67;;;2.53;;
39772;SDS011;25451;51.960;6.250;2023-11-19T15:05:06;17.17;;;2.10;;